Seaside, OR (97138)

7:35 AM PST on February 06, 2016 (GMT -0800)
APRSWXNET | | Change Station
CLOSE
Current Station
Personal Weather Station
Location: Cannon Beach, OR
Elevation: 22 ft
Nearby Weather Stations

Elev 22 ft 45.89 °N, 123.96 °W | Updated 25 minutes ago

Partly Cloudy
Partly Cloudy
50 °F
Feels Like 48 °F
N
6
Wind Variable Wind from WSW
Gusts 9.0 mph

Today
High -- | Low -- °F
--% Chance of Precip.
Yesterday
High -- | Low -- °F
Precip. -- in
Pressure 30.44 in
Visibility 10.0 miles
Clouds Mostly Cloudy 2800 ft
Mostly Cloudy 3500 ft
Windchill 48 °F
Dew Point 43 °F
Humidity 76%
Rainfall in
Snow Depth Not available.
7:31 AM 5:28 PM
Waning Crescent, 5% visible
SPECI KAST 061526Z AUTO 10004KT 10SM BKN028 BKN035 07/04 A3044 RMK AO2 T00670044
Pressure 30.44 in
Visibility 10.0 miles
Clouds Mostly Cloudy 2800 ft
Mostly Cloudy 3500 ft
Windchill 48 °F
Dew Point 43 °F
Humidity 76%
Rainfall in
Snow Depth Not available.
7:31 AM 5:28 PM
Waning Crescent, 5% visible
SPECI KAST 061526Z AUTO 10004KT 10SM BKN028 BKN035 07/04 A3044 RMK AO2 T00670044

10-Day Weather Forecast

Almanac

Astronomy

Feb. 06, 2016 Rise Set
Actual Time
Civil Twilight
Nautical Twilight
Astronomical Twilight
Moon
Length of Visible Light
Length of Day
Tomorrow will be .
, % of the Moon is Illuminated

Today's Extremes

State Highs State Lows

Community

WunderPhotos

Upload Photos

1,890,987 photos uploaded!

WunderBlog® & News

Nearby

Air Quality

  Air Quality AQ Index Pollutant
Not available.

Snow Depth

Station Depth Elevation

Earthquake Activity

City Distance Mag. Time & Date
Minimum magnitude displayed is 2.5.

Coastal Water Temperatures

Place Temperature

Stations

Nearby Weather Stations

Station Location Temp. Windchill Dew Point Humidity Wind Precip. Elev Updated Type
                   

Watches & Warnings

There are currently no watches in effect.